createdAt,value
2023-02-26T00:00:37.001Z,3.80
2023-02-26T00:01:37.004Z,4.20
2023-02-26T00:02:36.986Z,4.00
2023-02-26T00:03:36.969Z,3.80
2023-02-26T00:04:36.958Z,3.30
2023-02-26T00:05:36.938Z,4.00
2023-02-26T00:06:36.919Z,4.00
2023-02-26T00:07:36.917Z,3.80
2023-02-26T00:08:36.908Z,4.00
2023-02-26T00:09:36.918Z,4.20
2023-02-26T00:10:36.892Z,4.00
2023-02-26T00:11:36.880Z,4.20
2023-02-26T00:12:36.888Z,4.10
2023-02-26T00:13:36.850Z,4.30
2023-02-26T00:14:36.859Z,4.60
2023-02-26T00:15:36.834Z,4.90
2023-02-26T00:16:36.836Z,5.10
2023-02-26T00:17:36.817Z,6.40
2023-02-26T00:18:36.800Z,8.30
2023-02-26T00:19:36.813Z,8.60
2023-02-26T00:20:36.784Z,7.90
2023-02-26T00:21:36.783Z,7.60
2023-02-26T00:22:36.768Z,6.30
2023-02-26T00:23:36.749Z,6.30
2023-02-26T00:24:36.770Z,6.90
2023-02-26T00:25:36.734Z,9.20
2023-02-26T00:26:36.721Z,7.60
2023-02-26T00:27:36.703Z,5.70
2023-02-26T00:28:36.704Z,5.90
2023-02-26T00:29:36.710Z,5.60
2023-02-26T00:30:36.759Z,4.70
2023-02-26T00:31:36.666Z,4.20
2023-02-26T00:32:36.698Z,4.50
2023-02-26T00:33:36.663Z,3.80
2023-02-26T00:34:36.652Z,4.50
2023-02-26T00:35:36.625Z,3.80
2023-02-26T00:36:36.620Z,3.80
2023-02-26T00:37:36.616Z,4.30
2023-02-26T00:38:36.595Z,4.10
2023-02-26T00:39:36.607Z,4.30
2023-02-26T00:40:36.586Z,4.60
2023-02-26T00:41:36.631Z,4.20
2023-02-26T00:42:36.557Z,4.30
2023-02-26T00:43:36.554Z,4.70
2023-02-26T00:44:36.550Z,4.60
2023-02-26T00:45:36.534Z,5.00
2023-02-26T00:46:36.518Z,4.70
2023-02-26T00:47:36.510Z,5.10
2023-02-26T00:48:36.496Z,4.90
2023-02-26T00:49:36.509Z,4.70
2023-02-26T00:50:36.495Z,5.10
2023-02-26T00:51:36.475Z,4.80
2023-02-26T00:52:36.484Z,4.50
2023-02-26T00:53:36.454Z,4.20
2023-02-26T00:54:36.453Z,4.70
2023-02-26T00:55:36.422Z,5.00
2023-02-26T00:56:36.415Z,4.50
2023-02-26T00:57:36.403Z,4.50
2023-02-26T00:58:36.391Z,5.00
2023-02-26T00:59:36.389Z,4.50
2023-02-26T01:00:36.396Z,4.40
2023-02-26T01:01:36.455Z,4.60
2023-02-26T01:02:36.353Z,4.90
2023-02-26T01:03:36.395Z,4.40
2023-02-26T01:04:36.325Z,4.90
2023-02-26T01:05:36.345Z,4.90
2023-02-26T01:06:36.311Z,4.70
2023-02-26T01:07:36.306Z,4.50
2023-02-26T01:08:36.283Z,4.50
2023-02-26T01:09:36.295Z,4.60
2023-02-26T01:10:36.287Z,4.70
2023-02-26T01:11:36.265Z,4.90
2023-02-26T01:12:36.244Z,4.50
2023-02-26T01:13:36.253Z,4.70
2023-02-26T01:14:36.246Z,4.80
2023-02-26T01:15:36.247Z,4.90
2023-02-26T01:16:36.219Z,5.00
2023-02-26T01:17:36.215Z,4.20
2023-02-26T01:18:36.183Z,5.00
2023-02-26T01:19:36.192Z,5.20
2023-02-26T01:20:36.218Z,4.30
2023-02-26T01:21:36.190Z,4.70
2023-02-26T01:22:36.162Z,4.70
2023-02-26T01:23:36.138Z,4.70
2023-02-26T01:24:36.121Z,4.40
2023-02-26T01:25:36.138Z,4.80
2023-02-26T01:26:36.098Z,4.40
2023-02-26T01:27:36.114Z,4.50
2023-02-26T01:28:36.077Z,4.60
2023-02-26T01:29:36.074Z,4.10
2023-02-26T01:30:36.080Z,4.70
2023-02-26T01:31:36.120Z,4.60
2023-02-26T01:32:36.065Z,4.60
2023-02-26T01:33:36.126Z,4.40
2023-02-26T01:34:36.069Z,3.90
2023-02-26T01:35:36.041Z,3.70
2023-02-26T01:36:36.020Z,4.10
2023-02-26T01:37:35.996Z,5.00
2023-02-26T01:38:36.001Z,4.30
2023-02-26T01:39:35.973Z,4.50
2023-02-26T01:40:35.997Z,4.60
2023-02-26T01:41:35.952Z,4.30
2023-02-26T01:42:35.939Z,4.20
2023-02-26T01:43:35.937Z,4.30
2023-02-26T01:44:35.934Z,3.90
2023-02-26T01:45:35.938Z,4.30
2023-02-26T01:46:35.938Z,4.00
2023-02-26T01:47:35.907Z,4.40
2023-02-26T01:48:35.897Z,3.70
2023-02-26T01:49:35.875Z,4.20
2023-02-26T01:50:35.882Z,3.70
2023-02-26T01:51:35.856Z,3.90
2023-02-26T01:52:35.837Z,4.20
2023-02-26T01:53:35.849Z,4.10
2023-02-26T01:54:35.836Z,4.10
2023-02-26T01:55:35.843Z,3.90
2023-02-26T01:56:35.806Z,3.70
2023-02-26T01:57:35.789Z,3.70
2023-02-26T01:58:35.795Z,4.00
2023-02-26T01:59:35.778Z,3.50
2023-02-26T02:00:35.808Z,3.50
2023-02-26T02:01:35.750Z,4.50
2023-02-26T02:02:35.805Z,4.00
2023-02-26T02:03:35.890Z,4.30
2023-02-26T02:04:35.712Z,4.90
2023-02-26T02:05:35.732Z,5.30
2023-02-26T02:06:35.702Z,4.50
2023-02-26T02:07:35.692Z,5.10
2023-02-26T02:08:35.777Z,6.00
2023-02-26T02:09:35.679Z,6.10
2023-02-26T02:10:35.675Z,5.20
2023-02-26T02:11:35.651Z,5.30
2023-02-26T02:12:35.648Z,4.00
2023-02-26T02:13:35.638Z,4.20
2023-02-26T02:14:35.612Z,4.40
2023-02-26T02:15:35.635Z,4.60
2023-02-26T02:16:35.645Z,4.10
2023-02-26T02:17:35.585Z,4.00
2023-02-26T02:18:35.585Z,3.70
2023-02-26T02:19:35.568Z,4.00
2023-02-26T02:20:35.580Z,3.70
2023-02-26T02:21:35.552Z,3.90
2023-02-26T02:22:35.536Z,3.80
2023-02-26T02:23:35.523Z,3.30
2023-02-26T02:24:35.511Z,3.80
2023-02-26T02:25:35.517Z,3.90
2023-02-26T02:26:35.482Z,4.00
2023-02-26T02:27:35.495Z,3.80
2023-02-26T02:28:35.460Z,3.60
2023-02-26T02:29:35.469Z,3.20
2023-02-26T02:30:35.461Z,3.90
2023-02-26T02:31:35.535Z,3.30
2023-02-26T02:32:35.508Z,4.10
2023-02-26T02:33:35.423Z,3.40
2023-02-26T02:34:36.101Z,3.70
2023-02-26T02:35:35.436Z,3.40
2023-02-26T02:36:35.381Z,3.80
2023-02-26T02:37:35.379Z,3.90
2023-02-26T02:38:35.364Z,3.70
2023-02-26T02:39:35.352Z,3.40
2023-02-26T02:40:35.363Z,4.00
2023-02-26T02:41:35.331Z,4.00
2023-02-26T02:42:35.352Z,4.00
2023-02-26T02:43:35.320Z,4.00
2023-02-26T02:44:35.314Z,3.80
2023-02-26T02:45:35.329Z,3.50
2023-02-26T02:46:35.311Z,3.70
2023-02-26T02:47:35.290Z,3.50
2023-02-26T02:48:35.255Z,3.70
2023-02-26T02:49:35.255Z,3.70
2023-02-26T02:50:35.244Z,3.90
2023-02-26T02:51:35.249Z,4.00
2023-02-26T02:52:35.222Z,4.20
2023-02-26T02:53:35.212Z,3.70
2023-02-26T02:54:35.196Z,3.50
2023-02-26T02:55:35.204Z,3.90
2023-02-26T02:56:35.198Z,3.40
2023-02-26T02:57:35.170Z,3.80
2023-02-26T02:58:35.164Z,3.50
2023-02-26T02:59:35.149Z,3.60
2023-02-26T03:00:35.147Z,3.60
2023-02-26T03:01:35.150Z,3.10
2023-02-26T03:02:35.144Z,3.80
2023-02-26T03:03:35.108Z,3.60
2023-02-26T03:04:35.090Z,3.80
2023-02-26T03:05:35.081Z,3.20
2023-02-26T03:06:35.428Z,3.30
2023-02-26T03:07:35.074Z,3.50
2023-02-26T03:08:35.055Z,3.80
2023-02-26T03:09:35.061Z,3.50
2023-02-26T03:10:35.045Z,3.50
2023-02-26T03:11:35.076Z,3.30
2023-02-26T03:12:35.006Z,3.70
2023-02-26T03:13:35.005Z,3.90
2023-02-26T03:14:34.996Z,3.90
2023-02-26T03:15:34.993Z,2.90
2023-02-26T03:16:35.077Z,3.30
2023-02-26T03:17:34.969Z,3.70
2023-02-26T03:18:34.956Z,3.20
2023-02-26T03:19:34.945Z,3.50
2023-02-26T03:20:34.937Z,3.50
2023-02-26T03:21:34.942Z,3.50
2023-02-26T03:22:34.942Z,3.20
2023-02-26T03:23:34.919Z,3.40
2023-02-26T03:24:34.899Z,3.70
2023-02-26T03:25:34.900Z,3.90
2023-02-26T03:26:34.890Z,3.20
2023-02-26T03:27:34.865Z,3.60
2023-02-26T03:28:34.850Z,3.80
2023-02-26T03:29:34.844Z,3.70
2023-02-26T03:30:34.830Z,3.40
2023-02-26T03:31:34.930Z,3.80
2023-02-26T03:32:34.875Z,3.40
2023-02-26T03:33:34.813Z,3.80
2023-02-26T03:34:34.793Z,3.40
2023-02-26T03:35:34.789Z,3.50
2023-02-26T03:36:34.788Z,3.40
2023-02-26T03:37:34.765Z,3.30
2023-02-26T03:38:34.752Z,3.30
2023-02-26T03:39:34.747Z,3.70
2023-02-26T03:40:34.725Z,3.90
2023-02-26T03:41:34.756Z,3.20
2023-02-26T03:42:34.706Z,3.10
2023-02-26T03:43:34.700Z,3.70
2023-02-26T03:44:34.712Z,3.60
2023-02-26T03:45:34.689Z,3.30
2023-02-26T03:46:34.687Z,3.70
2023-02-26T03:47:34.667Z,4.10
2023-02-26T03:48:34.645Z,3.40
2023-02-26T03:49:34.650Z,3.90
2023-02-26T03:50:34.628Z,3.60
2023-02-26T03:51:34.650Z,3.70
2023-02-26T03:52:34.608Z,3.50
2023-02-26T03:53:34.616Z,3.40
2023-02-26T03:54:34.613Z,3.50
2023-02-26T03:55:34.580Z,3.50
2023-02-26T03:56:34.586Z,3.20
2023-02-26T03:57:34.561Z,4.30
2023-02-26T03:58:34.558Z,4.00
2023-02-26T03:59:34.533Z,3.70
2023-02-26T04:00:34.523Z,4.00
2023-02-26T04:01:34.533Z,4.00
2023-02-26T04:02:34.585Z,3.90
2023-02-26T04:03:34.498Z,4.00
2023-02-26T04:04:34.536Z,3.30
2023-02-26T04:05:34.494Z,3.20
2023-02-26T04:06:34.491Z,3.90
2023-02-26T04:07:34.452Z,3.60
2023-02-26T04:08:34.449Z,3.80
2023-02-26T04:09:34.431Z,4.00
2023-02-26T04:10:34.443Z,4.40
2023-02-26T04:11:34.436Z,3.90
2023-02-26T04:12:34.404Z,3.50
2023-02-26T04:13:34.398Z,4.00
2023-02-26T04:14:34.385Z,4.10
2023-02-26T04:15:34.378Z,4.00
2023-02-26T04:16:34.421Z,3.90
2023-02-26T04:17:34.345Z,4.00
2023-02-26T04:18:34.337Z,3.70
2023-02-26T04:19:34.339Z,3.60
2023-02-26T04:20:34.324Z,3.80
2023-02-26T04:21:34.331Z,4.50
2023-02-26T04:22:34.326Z,3.70
2023-02-26T04:23:34.287Z,4.20
2023-02-26T04:24:34.289Z,3.90
2023-02-26T04:25:34.267Z,4.10
2023-02-26T04:26:34.275Z,4.00
2023-02-26T04:27:34.244Z,3.70
2023-02-26T04:28:34.244Z,4.00
2023-02-26T04:29:34.237Z,3.70
2023-02-26T04:30:34.255Z,3.70
2023-02-26T04:31:34.302Z,4.30
2023-02-26T04:32:34.219Z,4.10
2023-02-26T04:33:34.176Z,4.20
2023-02-26T04:34:34.175Z,3.70
2023-02-26T04:35:34.162Z,3.80
2023-02-26T04:36:34.166Z,4.20
2023-02-26T04:37:34.138Z,3.70
2023-02-26T04:38:34.137Z,4.00
2023-02-26T04:39:34.116Z,4.20
2023-02-26T04:40:34.117Z,4.00
2023-02-26T04:41:34.115Z,4.20
2023-02-26T04:42:34.095Z,4.20
2023-02-26T04:43:34.076Z,4.10
2023-02-26T04:44:34.074Z,4.00
2023-02-26T04:45:34.112Z,4.30
2023-02-26T04:46:34.155Z,3.70
2023-02-26T04:47:34.050Z,4.40
2023-02-26T04:48:34.039Z,3.90
2023-02-26T04:49:34.033Z,4.10
2023-02-26T04:50:34.046Z,4.00
2023-02-26T04:51:34.060Z,3.90
2023-02-26T04:52:33.991Z,4.20
2023-02-26T04:53:34.697Z,3.90
2023-02-26T04:54:33.990Z,4.00
2023-02-26T04:55:33.947Z,4.80
2023-02-26T04:56:34.917Z,4.10
2023-02-26T04:57:33.929Z,4.00
2023-02-26T04:58:33.929Z,4.10
2023-02-26T04:59:33.908Z,4.20
2023-02-26T05:00:33.912Z,4.00
2023-02-26T05:01:33.954Z,4.50
2023-02-26T05:02:33.881Z,4.50
2023-02-26T05:03:33.872Z,4.10
2023-02-26T05:04:33.932Z,4.40
2023-02-26T05:05:33.884Z,4.30
2023-02-26T05:06:33.862Z,4.30
2023-02-26T05:07:33.832Z,4.70
2023-02-26T05:08:33.844Z,4.30
2023-02-26T05:09:33.811Z,4.00
2023-02-26T05:10:33.804Z,4.30
2023-02-26T05:11:33.805Z,4.40
2023-02-26T05:12:33.785Z,3.90
2023-02-26T05:13:33.781Z,4.40
2023-02-26T05:14:33.766Z,4.10
2023-02-26T05:15:33.751Z,4.70
2023-02-26T05:16:33.806Z,4.30
2023-02-26T05:17:33.726Z,4.30
2023-02-26T05:18:33.729Z,4.10
2023-02-26T05:19:33.717Z,4.50
2023-02-26T05:20:33.702Z,4.30
2023-02-26T05:21:33.709Z,4.60
2023-02-26T05:22:33.679Z,4.40
2023-02-26T05:23:33.678Z,4.50
2023-02-26T05:24:33.671Z,3.70
2023-02-26T05:25:33.641Z,3.90
2023-02-26T05:26:33.654Z,4.00
2023-02-26T05:27:33.621Z,4.10
2023-02-26T05:28:33.621Z,4.50
2023-02-26T05:29:33.609Z,3.90
2023-02-26T05:30:33.634Z,4.10
2023-02-26T05:31:33.734Z,4.00
2023-02-26T05:32:33.583Z,4.10
2023-02-26T05:33:33.561Z,3.70
2023-02-26T05:34:33.565Z,4.20
2023-02-26T05:35:33.542Z,4.20
2023-02-26T05:36:33.552Z,4.10
2023-02-26T05:37:33.522Z,3.90
2023-02-26T05:38:33.518Z,4.10
2023-02-26T05:39:33.506Z,4.20
2023-02-26T05:40:33.492Z,4.20
2023-02-26T05:41:33.502Z,4.00
2023-02-26T05:42:33.476Z,4.30
2023-02-26T05:43:33.467Z,3.90
2023-02-26T05:44:33.453Z,4.20
2023-02-26T05:45:33.447Z,3.90
2023-02-26T05:46:33.499Z,4.70
2023-02-26T05:47:33.443Z,4.20
2023-02-26T05:48:33.418Z,4.00
2023-02-26T05:49:33.395Z,4.10
2023-02-26T05:50:33.396Z,4.20
2023-02-26T05:51:33.375Z,4.50
2023-02-26T05:52:33.395Z,4.20
2023-02-26T05:53:33.354Z,3.70
2023-02-26T05:54:33.352Z,4.60
2023-02-26T05:55:33.294Z,3.80
2023-02-26T05:56:33.340Z,4.10
2023-02-26T05:57:33.345Z,4.00
2023-02-26T05:58:33.305Z,4.20
2023-02-26T05:59:33.300Z,3.90
2023-02-26T06:00:33.311Z,4.00
2023-02-26T06:01:33.318Z,4.20
2023-02-26T06:02:33.285Z,4.00
2023-02-26T06:03:33.257Z,3.90
2023-02-26T06:04:33.246Z,3.80
2023-02-26T06:05:33.224Z,3.80
2023-02-26T06:06:33.228Z,4.00
2023-02-26T06:07:33.227Z,4.00
2023-02-26T06:08:33.163Z,4.10
2023-02-26T06:09:33.138Z,3.80
2023-02-26T06:10:33.127Z,4.30
2023-02-26T06:11:34.164Z,4.40
2023-02-26T06:12:33.127Z,3.80
2023-02-26T06:13:33.110Z,3.80
2023-02-26T06:14:33.086Z,3.70
2023-02-26T06:15:33.089Z,4.00
2023-02-26T06:16:33.104Z,4.00
2023-02-26T06:17:33.098Z,4.10
2023-02-26T06:18:33.089Z,4.60
2023-02-26T06:19:33.028Z,3.70
2023-02-26T06:20:33.030Z,3.40
2023-02-26T06:21:33.028Z,4.30
2023-02-26T06:22:33.027Z,3.70
2023-02-26T06:23:32.988Z,4.10
2023-02-26T06:24:32.999Z,3.50
2023-02-26T06:25:32.973Z,4.20
2023-02-26T06:26:33.062Z,3.80
2023-02-26T06:27:32.979Z,3.60
2023-02-26T06:28:32.944Z,4.10
2023-02-26T06:29:32.949Z,4.20
2023-02-26T06:30:32.979Z,4.10
2023-02-26T06:31:32.921Z,3.80
2023-02-26T06:32:33.017Z,3.70
2023-02-26T06:33:32.894Z,4.30
2023-02-26T06:34:32.886Z,3.70
2023-02-26T06:35:32.887Z,4.10
2023-02-26T06:36:32.869Z,3.60
2023-02-26T06:37:33.689Z,4.20
2023-02-26T06:38:32.848Z,9.00
2023-02-26T06:39:32.838Z,8.80
2023-02-26T06:40:32.844Z,6.80
2023-02-26T06:41:32.821Z,5.50
2023-02-26T06:42:32.828Z,4.40
2023-02-26T06:43:32.793Z,4.00
2023-02-26T06:44:32.798Z,20.40
2023-02-26T06:45:32.839Z,13.00
2023-02-26T06:46:32.803Z,7.60
2023-02-26T06:47:32.771Z,4.60
2023-02-26T06:48:32.741Z,4.20
2023-02-26T06:49:32.739Z,4.50
2023-02-26T06:50:32.732Z,4.10
2023-02-26T06:51:32.718Z,3.80
2023-02-26T06:52:32.901Z,3.70
2023-02-26T06:53:32.694Z,4.20
2023-02-26T06:54:32.690Z,4.10
2023-02-26T06:55:32.674Z,3.60
2023-02-26T06:56:32.667Z,3.80
2023-02-26T06:57:32.677Z,4.00
2023-02-26T06:58:32.645Z,4.20
2023-02-26T06:59:32.637Z,3.80
2023-02-26T07:00:32.641Z,3.70
2023-02-26T07:01:32.619Z,4.00
2023-02-26T07:02:32.683Z,3.90
2023-02-26T07:03:32.595Z,3.70
2023-02-26T07:04:32.613Z,4.10
2023-02-26T07:05:32.566Z,3.70
2023-02-26T07:06:32.572Z,4.30
2023-02-26T07:07:32.565Z,3.60
2023-02-26T07:08:32.547Z,3.80
2023-02-26T07:09:32.527Z,4.00
2023-02-26T07:10:32.546Z,4.30
2023-02-26T07:11:32.519Z,4.80
2023-02-26T07:12:32.518Z,3.90
2023-02-26T07:13:32.486Z,3.70
2023-02-26T07:14:32.476Z,3.50
2023-02-26T07:15:32.477Z,4.10
2023-02-26T07:16:32.502Z,3.60
2023-02-26T07:17:32.466Z,4.10
2023-02-26T07:18:32.440Z,5.20
2023-02-26T07:19:32.429Z,4.60
2023-02-26T07:20:32.417Z,4.50
2023-02-26T07:21:32.407Z,4.10
2023-02-26T07:22:32.430Z,4.30
2023-02-26T07:23:32.378Z,4.70
2023-02-26T07:24:32.379Z,4.30
2023-02-26T07:25:32.370Z,4.30
2023-02-26T07:26:32.359Z,3.80
2023-02-26T07:27:32.359Z,3.90
2023-02-26T07:28:32.334Z,4.30
2023-02-26T07:29:32.329Z,4.40
2023-02-26T07:30:32.374Z,4.30
2023-02-26T07:31:32.439Z,4.00
2023-02-26T07:32:32.397Z,4.00
2023-02-26T07:33:32.282Z,4.30
2023-02-26T07:34:32.274Z,4.30
2023-02-26T07:35:32.261Z,4.30
2023-02-26T07:36:32.253Z,4.30
2023-02-26T07:37:32.262Z,3.80
2023-02-26T07:38:32.234Z,4.20
2023-02-26T07:39:32.219Z,4.30
2023-02-26T07:40:32.211Z,4.30
2023-02-26T07:41:32.203Z,4.40
2023-02-26T07:42:32.209Z,4.70
2023-02-26T07:43:32.170Z,4.40
2023-02-26T07:44:32.172Z,3.90
2023-02-26T07:45:32.160Z,4.10
2023-02-26T07:46:32.282Z,4.80
2023-02-26T07:47:32.183Z,3.90
2023-02-26T07:48:32.131Z,4.00
2023-02-26T07:49:32.112Z,3.80
2023-02-26T07:50:32.117Z,4.00
2023-02-26T07:51:32.638Z,4.20
2023-02-26T07:52:32.101Z,4.40
2023-02-26T07:53:32.070Z,4.30
2023-02-26T07:54:32.070Z,4.20
2023-02-26T07:55:32.049Z,4.40
2023-02-26T07:56:32.042Z,4.50
2023-02-26T07:57:32.042Z,4.20
2023-02-26T07:58:32.030Z,4.60
2023-02-26T07:59:32.015Z,4.30
2023-02-26T08:00:32.002Z,4.50
2023-02-26T08:01:32.004Z,4.80
2023-02-26T08:02:31.993Z,5.60
2023-02-26T08:03:31.966Z,4.80
2023-02-26T08:04:32.056Z,4.70
2023-02-26T08:05:31.941Z,5.00
2023-02-26T08:06:31.942Z,5.10
2023-02-26T08:07:31.945Z,5.60
2023-02-26T08:08:31.924Z,5.60
2023-02-26T08:09:31.905Z,5.20
2023-02-26T08:10:31.902Z,4.40
2023-02-26T08:11:31.886Z,7.30
2023-02-26T08:12:31.895Z,6.50
2023-02-26T08:13:31.865Z,7.90
2023-02-26T08:14:31.855Z,8.40
2023-02-26T08:15:31.882Z,9.10
2023-02-26T08:16:31.846Z,4.70
2023-02-26T08:17:31.855Z,4.60
2023-02-26T08:18:31.815Z,4.50
2023-02-26T08:19:31.806Z,3.80
2023-02-26T08:20:31.812Z,4.00
2023-02-26T08:21:31.786Z,4.30
2023-02-26T08:22:31.796Z,4.40
2023-02-26T08:23:31.759Z,4.00
2023-02-26T08:24:31.759Z,5.20
2023-02-26T08:25:31.747Z,4.40
2023-02-26T08:26:31.728Z,4.50
2023-02-26T08:27:31.739Z,4.10
2023-02-26T08:28:31.709Z,4.60
2023-02-26T08:29:31.709Z,4.70
2023-02-26T08:30:31.688Z,4.20
2023-02-26T08:31:31.830Z,4.70
2023-02-26T08:32:31.770Z,4.40
2023-02-26T08:33:31.662Z,4.50
2023-02-26T08:34:31.657Z,4.60
2023-02-26T08:35:31.654Z,5.00
2023-02-26T08:36:31.630Z,5.30
2023-02-26T08:37:31.641Z,4.40
2023-02-26T08:38:31.607Z,4.60
2023-02-26T08:39:31.601Z,4.10
2023-02-26T08:40:31.594Z,4.30
2023-02-26T08:41:31.583Z,3.80
2023-02-26T08:42:31.583Z,3.90
2023-02-26T08:43:31.564Z,3.80
2023-02-26T08:44:31.542Z,3.30
2023-02-26T08:45:31.545Z,2.90
2023-02-26T08:46:31.571Z,3.40
2023-02-26T08:47:32.073Z,2.80
2023-02-26T08:48:31.506Z,2.90
2023-02-26T08:49:31.549Z,3.00
2023-02-26T08:50:31.487Z,3.40
2023-02-26T08:51:31.516Z,3.40
2023-02-26T08:52:31.493Z,3.10
2023-02-26T08:53:31.456Z,3.40
2023-02-26T08:54:31.464Z,3.00
2023-02-26T08:55:31.447Z,3.30
2023-02-26T08:56:31.428Z,2.80
2023-02-26T08:57:31.423Z,2.80
2023-02-26T08:58:32.226Z,3.10
2023-02-26T08:59:31.399Z,2.80
2023-02-26T09:00:31.392Z,2.90
2023-02-26T09:01:31.447Z,3.00
2023-02-26T09:02:31.414Z,3.20
2023-02-26T09:03:31.397Z,2.80
2023-02-26T09:04:31.421Z,3.60
2023-02-26T09:05:31.339Z,2.80
2023-02-26T09:06:31.322Z,2.40
2023-02-26T09:07:31.320Z,2.80
2023-02-26T09:08:31.323Z,3.30
2023-02-26T09:09:31.302Z,2.80
2023-02-26T09:10:31.283Z,2.90
2023-02-26T09:11:31.271Z,3.20
2023-02-26T09:12:31.262Z,2.70
2023-02-26T09:13:31.281Z,2.70
2023-02-26T09:14:31.262Z,2.80
2023-02-26T09:15:31.238Z,3.00
2023-02-26T09:16:31.284Z,2.80
2023-02-26T09:17:31.213Z,2.70
2023-02-26T09:18:31.220Z,3.10
2023-02-26T09:19:31.194Z,2.90
2023-02-26T09:20:31.176Z,2.60
2023-02-26T09:21:31.174Z,2.70
2023-02-26T09:22:31.158Z,3.00
2023-02-26T09:23:31.180Z,2.80
2023-02-26T09:24:31.162Z,2.90
2023-02-26T09:25:31.138Z,2.70
2023-02-26T09:26:31.119Z,3.00
2023-02-26T09:27:31.120Z,2.90
2023-02-26T09:28:31.200Z,2.90
2023-02-26T09:29:31.087Z,3.00
2023-02-26T09:30:31.074Z,4.90
2023-02-26T09:31:31.123Z,7.50
2023-02-26T09:32:31.245Z,7.20
2023-02-26T09:33:31.057Z,5.10
2023-02-26T09:34:31.038Z,4.40
2023-02-26T09:35:31.019Z,3.10
2023-02-26T09:36:31.021Z,3.00
2023-02-26T09:37:31.018Z,3.00
2023-02-26T09:38:31.008Z,2.70
2023-02-26T09:39:30.989Z,2.60
2023-02-26T09:40:30.972Z,2.80
2023-02-26T09:41:30.961Z,2.60
2023-02-26T09:42:30.948Z,2.60
2023-02-26T09:43:30.970Z,2.80
2023-02-26T09:44:30.945Z,2.80
2023-02-26T09:45:30.947Z,2.30
2023-02-26T09:46:30.933Z,2.50
2023-02-26T09:47:30.903Z,2.60
2023-02-26T09:48:30.909Z,2.40
2023-02-26T09:49:30.895Z,2.30
2023-02-26T09:50:30.870Z,2.60
2023-02-26T09:51:30.863Z,2.40
2023-02-26T09:52:30.853Z,2.30
2023-02-26T09:53:30.855Z,2.30
2023-02-26T09:54:30.835Z,2.90
2023-02-26T09:55:30.816Z,2.70
2023-02-26T09:56:30.814Z,2.60
2023-02-26T09:57:30.797Z,2.50
2023-02-26T09:58:30.807Z,2.40
2023-02-26T09:59:30.779Z,2.10
2023-02-26T10:00:30.768Z,2.40
2023-02-26T10:01:30.805Z,2.50
2023-02-26T10:02:30.750Z,2.20
2023-02-26T10:03:30.771Z,2.20
2023-02-26T10:04:30.795Z,2.60
2023-02-26T10:05:30.720Z,2.60
2023-02-26T10:06:30.712Z,2.20
2023-02-26T10:07:30.712Z,2.00
2023-02-26T10:08:30.711Z,2.00
2023-02-26T10:09:30.674Z,2.60
2023-02-26T10:10:33.074Z,2.30
2023-02-26T10:11:30.665Z,2.10
2023-02-26T10:12:30.645Z,2.50
2023-02-26T10:13:30.655Z,2.30
2023-02-26T10:14:30.625Z,2.40
2023-02-26T10:15:30.615Z,2.60
2023-02-26T10:16:31.011Z,2.50
2023-02-26T10:17:30.599Z,2.70
2023-02-26T10:18:30.617Z,2.60
2023-02-26T10:19:30.579Z,2.40
2023-02-26T10:20:30.602Z,2.40
2023-02-26T10:21:30.579Z,2.20
2023-02-26T10:22:30.551Z,2.40
2023-02-26T10:23:30.550Z,2.20
2023-02-26T10:24:30.533Z,2.20
2023-02-26T10:25:30.519Z,2.30
2023-02-26T10:26:30.615Z,2.30
2023-02-26T10:27:30.490Z,2.50
2023-02-26T10:28:30.549Z,2.20
2023-02-26T10:29:30.467Z,2.60
2023-02-26T10:30:30.571Z,2.60
2023-02-26T10:31:30.499Z,2.60
2023-02-26T10:32:30.532Z,2.50
2023-02-26T10:33:30.448Z,2.50
2023-02-26T10:34:30.417Z,2.10
2023-02-26T10:35:30.407Z,2.30
2023-02-26T10:36:30.406Z,2.50
2023-02-26T10:37:30.385Z,2.60
2023-02-26T10:38:30.407Z,2.20
2023-02-26T10:39:30.366Z,2.10
2023-02-26T10:40:30.346Z,2.50
2023-02-26T10:41:30.345Z,2.20
2023-02-26T10:42:30.336Z,2.30
2023-02-26T10:43:30.336Z,2.70
2023-02-26T10:44:30.317Z,2.80
2023-02-26T10:45:30.331Z,2.50
2023-02-26T10:46:30.293Z,2.50
2023-02-26T10:47:30.277Z,2.90
2023-02-26T10:48:30.287Z,2.60
2023-02-26T10:49:30.260Z,2.60
2023-02-26T10:50:30.245Z,2.30
2023-02-26T10:51:30.246Z,2.50
2023-02-26T10:52:30.228Z,2.40
2023-02-26T10:53:30.248Z,2.40
2023-02-26T10:54:30.207Z,2.20
2023-02-26T10:55:30.218Z,2.80
2023-02-26T10:56:30.179Z,2.50
2023-02-26T10:57:30.178Z,2.50
2023-02-26T10:58:30.179Z,2.50
2023-02-26T10:59:30.149Z,2.40
2023-02-26T11:00:30.138Z,2.20
2023-02-26T11:01:30.252Z,2.50
2023-02-26T11:02:30.171Z,2.00
2023-02-26T11:03:30.149Z,2.30
2023-02-26T11:04:30.100Z,2.30
2023-02-26T11:05:30.110Z,2.30
2023-02-26T11:06:30.084Z,2.30
2023-02-26T11:07:32.255Z,2.50
2023-02-26T11:08:30.075Z,2.20
2023-02-26T11:09:30.046Z,2.30
2023-02-26T11:10:30.040Z,2.10
2023-02-26T11:11:30.037Z,2.60
2023-02-26T11:12:30.028Z,2.40
2023-02-26T11:13:30.050Z,2.60
2023-02-26T11:14:30.899Z,2.60
2023-02-26T11:15:29.989Z,2.80
2023-02-26T11:16:29.980Z,3.30
2023-02-26T11:17:29.972Z,3.00
2023-02-26T11:18:29.979Z,2.80
2023-02-26T11:19:29.963Z,2.80
2023-02-26T11:20:29.956Z,3.20
2023-02-26T11:21:29.981Z,3.50
2023-02-26T11:22:29.922Z,2.50
2023-02-26T11:23:29.936Z,2.70
2023-02-26T11:24:29.897Z,2.60
2023-02-26T11:25:29.910Z,2.50
2023-02-26T11:26:29.874Z,2.30
2023-02-26T11:27:29.875Z,2.00
2023-02-26T11:28:29.875Z,2.30
2023-02-26T11:29:29.857Z,2.20
2023-02-26T11:30:29.892Z,2.30
2023-02-26T11:31:30.633Z,2.40
2023-02-26T11:32:29.873Z,1.80
2023-02-26T11:33:29.830Z,2.10
2023-02-26T11:34:29.797Z,2.30
2023-02-26T11:35:29.790Z,2.40
2023-02-26T11:36:29.778Z,2.00
2023-02-26T11:37:29.780Z,2.40
2023-02-26T11:38:29.875Z,2.30
2023-02-26T11:39:29.760Z,2.60
2023-02-26T11:40:29.728Z,2.70
2023-02-26T11:41:29.773Z,2.20
2023-02-26T11:42:29.710Z,2.60
2023-02-26T11:43:29.720Z,2.10
2023-02-26T11:44:29.688Z,2.30
2023-02-26T11:45:29.693Z,2.60
2023-02-26T11:46:29.689Z,2.50
2023-02-26T11:47:29.689Z,1.80
2023-02-26T11:48:29.679Z,2.20
2023-02-26T11:49:29.641Z,2.20
2023-02-26T11:50:29.622Z,2.20
2023-02-26T11:51:29.706Z,2.30
2023-02-26T11:52:29.602Z,2.40
2023-02-26T11:53:29.606Z,2.40
2023-02-26T11:54:29.600Z,2.60
2023-02-26T11:55:29.575Z,2.10
2023-02-26T11:56:29.560Z,2.30
2023-02-26T11:57:29.570Z,2.30
2023-02-26T11:58:29.539Z,2.50
2023-02-26T11:59:29.560Z,2.60
2023-02-26T12:00:29.520Z,2.30
2023-02-26T12:01:29.606Z,2.30
2023-02-26T12:02:29.536Z,2.70
2023-02-26T12:03:29.533Z,2.10
2023-02-26T12:04:29.489Z,2.60
2023-02-26T12:05:29.506Z,2.30
2023-02-26T12:06:29.462Z,2.10
2023-02-26T12:07:29.449Z,1.80
2023-02-26T12:08:29.438Z,2.00
2023-02-26T12:09:29.443Z,2.60
2023-02-26T12:10:29.418Z,2.00
2023-02-26T12:11:29.799Z,2.20
2023-02-26T12:12:29.398Z,2.20
2023-02-26T12:13:29.391Z,1.80
2023-02-26T12:14:29.382Z,2.10
2023-02-26T12:15:29.370Z,2.30
2023-02-26T12:16:29.352Z,2.10
2023-02-26T12:17:29.342Z,2.00
2023-02-26T12:18:29.330Z,2.30
2023-02-26T12:19:29.342Z,1.90
2023-02-26T12:20:29.321Z,2.10
2023-02-26T12:21:29.606Z,2.20
2023-02-26T12:22:29.297Z,2.20
2023-02-26T12:23:29.286Z,2.20
2023-02-26T12:24:29.290Z,2.20
2023-02-26T12:25:29.277Z,2.40
2023-02-26T12:26:29.250Z,2.20
2023-02-26T12:27:29.236Z,2.70
2023-02-26T12:28:29.234Z,2.40
2023-02-26T12:29:29.237Z,2.40
2023-02-26T12:30:29.246Z,2.50
2023-02-26T12:31:29.712Z,2.50
2023-02-26T12:32:30.194Z,2.40
2023-02-26T12:33:29.189Z,2.60
2023-02-26T12:34:29.350Z,2.40
2023-02-26T12:35:29.162Z,2.20
2023-02-26T12:36:36.419Z,2.20
2023-02-26T12:37:30.141Z,2.10
2023-02-26T12:38:29.123Z,1.90
2023-02-26T12:39:29.143Z,1.60
2023-02-26T12:40:29.104Z,2.30
2023-02-26T12:41:29.180Z,2.10
2023-02-26T12:42:29.084Z,2.00
2023-02-26T12:43:29.076Z,2.10
2023-02-26T12:44:29.091Z,1.90
2023-02-26T12:45:29.063Z,1.70
2023-02-26T12:46:29.067Z,2.10
2023-02-26T12:47:29.037Z,1.90
2023-02-26T12:48:29.027Z,2.00
2023-02-26T12:49:29.027Z,2.00
2023-02-26T12:50:29.006Z,1.80
2023-02-26T12:51:29.338Z,2.60
2023-02-26T12:52:29.003Z,2.00
2023-02-26T12:53:28.974Z,2.10
2023-02-26T12:54:28.987Z,4.40
2023-02-26T12:55:28.950Z,6.50
2023-02-26T12:56:28.950Z,7.90
2023-02-26T12:57:28.934Z,8.40
2023-02-26T12:58:28.928Z,2.40
2023-02-26T12:59:28.928Z,3.00
2023-02-26T13:00:28.907Z,2.50
2023-02-26T13:01:29.141Z,2.10
2023-02-26T13:02:28.881Z,1.90
2023-02-26T13:03:28.873Z,1.80
2023-02-26T13:04:28.884Z,2.20
2023-02-26T13:05:28.844Z,2.20
2023-02-26T13:06:28.902Z,2.00
2023-02-26T13:07:28.824Z,2.00
2023-02-26T13:08:28.818Z,2.10
2023-02-26T13:09:28.816Z,1.60
2023-02-26T13:10:28.819Z,1.70
2023-02-26T13:11:29.105Z,1.80
2023-02-26T13:12:28.779Z,1.50
2023-02-26T13:13:28.757Z,1.70
2023-02-26T13:14:28.778Z,1.70
2023-02-26T13:15:28.737Z,1.50
2023-02-26T13:16:28.804Z,2.00
2023-02-26T13:17:28.721Z,1.80
2023-02-26T13:18:28.716Z,1.60